sensor_id;sensor_type;location;lat;lon;timestamp;temperature;humidity
65766;SHT31;52915;53.718;19.946;2023-08-06T00:00:36;17.51;84.43
65766;SHT31;52915;53.718;19.946;2023-08-06T00:06:01;17.51;84.49
65766;SHT31;52915;53.718;19.946;2023-08-06T00:11:11;17.54;84.48
65766;SHT31;52915;53.718;19.946;2023-08-06T00:16:16;17.57;84.46
65766;SHT31;52915;53.718;19.946;2023-08-06T00:21:20;17.55;84.60
65766;SHT31;52915;53.718;19.946;2023-08-06T00:26:24;17.55;84.74
65766;SHT31;52915;53.718;19.946;2023-08-06T00:31:28;17.54;84.82
65766;SHT31;52915;53.718;19.946;2023-08-06T00:36:33;17.55;84.85
65766;SHT31;52915;53.718;19.946;2023-08-06T00:41:37;17.55;84.88
65766;SHT31;52915;53.718;19.946;2023-08-06T00:46:41;17.53;84.99
65766;SHT31;52915;53.718;19.946;2023-08-06T00:51:45;17.54;85.10
65766;SHT31;52915;53.718;19.946;2023-08-06T00:56:50;17.55;85.10
65766;SHT31;52915;53.718;19.946;2023-08-06T01:01:55;17.57;85.06
65766;SHT31;52915;53.718;19.946;2023-08-06T01:07:02;17.58;84.95
65766;SHT31;52915;53.718;19.946;2023-08-06T01:12:44;17.55;85.03
65766;SHT31;52915;53.718;19.946;2023-08-06T01:18:01;17.50;85.26
65766;SHT31;52915;53.718;19.946;2023-08-06T01:23:06;17.42;85.58
65766;SHT31;52915;53.718;19.946;2023-08-06T01:28:11;17.36;85.85
65766;SHT31;52915;53.718;19.946;2023-08-06T01:33:46;17.33;85.90
65766;SHT31;52915;53.718;19.946;2023-08-06T01:38:53;17.33;85.93
65766;SHT31;52915;53.718;19.946;2023-08-06T01:43:58;17.33;86.00
65766;SHT31;52915;53.718;19.946;2023-08-06T01:49:02;17.32;86.20
65766;SHT31;52915;53.718;19.946;2023-08-06T01:54:06;17.31;86.51
65766;SHT31;52915;53.718;19.946;2023-08-06T01:59:11;17.29;86.66
65766;SHT31;52915;53.718;19.946;2023-08-06T02:04:15;17.28;86.67
65766;SHT31;52915;53.718;19.946;2023-08-06T02:09:20;17.25;86.78
65766;SHT31;52915;53.718;19.946;2023-08-06T02:14:24;17.22;86.83
65766;SHT31;52915;53.718;19.946;2023-08-06T02:19:28;17.19;87.05
65766;SHT31;52915;53.718;19.946;2023-08-06T02:24:32;17.17;87.21
65766;SHT31;52915;53.718;19.946;2023-08-06T02:29:36;17.18;87.31
65766;SHT31;52915;53.718;19.946;2023-08-06T02:34:44;17.19;87.37
65766;SHT31;52915;53.718;19.946;2023-08-06T02:39:48;17.19;87.53
65766;SHT31;52915;53.718;19.946;2023-08-06T02:44:52;17.19;87.61
65766;SHT31;52915;53.718;19.946;2023-08-06T02:49:59;17.21;87.69
65766;SHT31;52915;53.718;19.946;2023-08-06T02:55:04;17.22;87.74
65766;SHT31;52915;53.718;19.946;2023-08-06T03:00:10;17.25;87.75
65766;SHT31;52915;53.718;19.946;2023-08-06T03:05:15;17.28;87.82
65766;SHT31;52915;53.718;19.946;2023-08-06T03:10:19;17.29;87.93
65766;SHT31;52915;53.718;19.946;2023-08-06T03:15:24;17.30;88.08
65766;SHT31;52915;53.718;19.946;2023-08-06T03:20:28;17.34;87.98
65766;SHT31;52915;53.718;19.946;2023-08-06T03:25:35;17.33;88.13
65766;SHT31;52915;53.718;19.946;2023-08-06T03:30:42;17.33;88.20
65766;SHT31;52915;53.718;19.946;2023-08-06T03:35:47;17.32;88.29
65766;SHT31;52915;53.718;19.946;2023-08-06T03:40:52;17.33;88.39
65766;SHT31;52915;53.718;19.946;2023-08-06T03:45:56;17.33;88.47
65766;SHT31;52915;53.718;19.946;2023-08-06T03:51:00;17.35;88.55
65766;SHT31;52915;53.718;19.946;2023-08-06T03:56:05;17.42;88.53
65766;SHT31;52915;53.718;19.946;2023-08-06T04:01:10;17.52;88.47
65766;SHT31;52915;53.718;19.946;2023-08-06T04:06:14;17.61;88.42
65766;SHT31;52915;53.718;19.946;2023-08-06T04:11:19;17.66;88.39
65766;SHT31;52915;53.718;19.946;2023-08-06T04:16:24;17.70;88.36
65766;SHT31;52915;53.718;19.946;2023-08-06T04:21:31;17.77;88.28
65766;SHT31;52915;53.718;19.946;2023-08-06T04:26:35;17.89;88.17
65766;SHT31;52915;53.718;19.946;2023-08-06T04:31:39;17.99;87.96
65766;SHT31;52915;53.718;19.946;2023-08-06T04:36:43;18.12;87.67
65766;SHT31;52915;53.718;19.946;2023-08-06T04:41:48;18.23;87.44
65766;SHT31;52915;53.718;19.946;2023-08-06T04:46:52;18.36;87.25
65766;SHT31;52915;53.718;19.946;2023-08-06T04:52:00;18.51;87.05
65766;SHT31;52915;53.718;19.946;2023-08-06T04:57:06;18.61;86.83
65766;SHT31;52915;53.718;19.946;2023-08-06T05:02:12;18.73;86.71
65766;SHT31;52915;53.718;19.946;2023-08-06T05:07:16;18.81;86.57
65766;SHT31;52915;53.718;19.946;2023-08-06T05:12:20;18.88;86.61
65766;SHT31;52915;53.718;19.946;2023-08-06T05:17:25;18.95;86.56
65766;SHT31;52915;53.718;19.946;2023-08-06T05:22:29;19.00;86.44
65766;SHT31;52915;53.718;19.946;2023-08-06T05:27:33;19.01;86.45
65766;SHT31;52915;53.718;19.946;2023-08-06T05:32:37;19.02;86.64
65766;SHT31;52915;53.718;19.946;2023-08-06T05:37:42;19.02;86.77
65766;SHT31;52915;53.718;19.946;2023-08-06T05:42:46;19.03;86.79
65766;SHT31;52915;53.718;19.946;2023-08-06T05:47:50;19.02;86.84
65766;SHT31;52915;53.718;19.946;2023-08-06T05:52:55;18.98;87.01
65766;SHT31;52915;53.718;19.946;2023-08-06T05:58:03;18.97;87.13
65766;SHT31;52915;53.718;19.946;2023-08-06T06:03:07;18.95;87.22
65766;SHT31;52915;53.718;19.946;2023-08-06T06:08:12;18.91;87.26
65766;SHT31;52915;53.718;19.946;2023-08-06T06:13:16;18.94;87.31
65766;SHT31;52915;53.718;19.946;2023-08-06T06:18:20;19.04;87.29
65766;SHT31;52915;53.718;19.946;2023-08-06T06:23:24;19.17;87.15
65766;SHT31;52915;53.718;19.946;2023-08-06T06:28:29;19.30;86.94
65766;SHT31;52915;53.718;19.946;2023-08-06T06:33:33;19.36;86.89
65766;SHT31;52915;53.718;19.946;2023-08-06T06:38:38;19.51;86.76
65766;SHT31;52915;53.718;19.946;2023-08-06T06:43:42;19.58;86.46
65766;SHT31;52915;53.718;19.946;2023-08-06T06:48:46;19.70;86.26
65766;SHT31;52915;53.718;19.946;2023-08-06T06:53:51;19.67;86.20
65766;SHT31;52915;53.718;19.946;2023-08-06T06:58:55;19.70;86.25
65766;SHT31;52915;53.718;19.946;2023-08-06T07:03:59;19.74;86.30
65766;SHT31;52915;53.718;19.946;2023-08-06T07:09:08;19.84;86.13
65766;SHT31;52915;53.718;19.946;2023-08-06T07:14:12;19.89;85.93
65766;SHT31;52915;53.718;19.946;2023-08-06T07:19:18;19.94;85.94
65766;SHT31;52915;53.718;19.946;2023-08-06T07:24:22;20.02;85.86
65766;SHT31;52915;53.718;19.946;2023-08-06T07:29:26;20.17;85.68
65766;SHT31;52915;53.718;19.946;2023-08-06T07:34:31;20.35;85.54
65766;SHT31;52915;53.718;19.946;2023-08-06T07:39:35;20.50;85.26
65766;SHT31;52915;53.718;19.946;2023-08-06T07:44:41;20.58;85.11
65766;SHT31;52915;53.718;19.946;2023-08-06T07:49:45;20.72;84.92
65766;SHT31;52915;53.718;19.946;2023-08-06T07:54:50;20.99;84.61
65766;SHT31;52915;53.718;19.946;2023-08-06T07:59:54;21.25;84.11
65766;SHT31;52915;53.718;19.946;2023-08-06T08:04:58;21.44;83.76
65766;SHT31;52915;53.718;19.946;2023-08-06T08:10:03;21.67;83.34
65766;SHT31;52915;53.718;19.946;2023-08-06T08:15:09;21.83;82.97
65766;SHT31;52915;53.718;19.946;2023-08-06T08:20:15;21.93;82.61
65766;SHT31;52915;53.718;19.946;2023-08-06T08:25:20;22.19;81.99
65766;SHT31;52915;53.718;19.946;2023-08-06T08:30:24;22.50;81.51
65766;SHT31;52915;53.718;19.946;2023-08-06T08:35:29;22.93;80.58
65766;SHT31;52915;53.718;19.946;2023-08-06T08:40:33;23.52;79.51
65766;SHT31;52915;53.718;19.946;2023-08-06T08:45:51;24.05;78.32
65766;SHT31;52915;53.718;19.946;2023-08-06T08:51:02;24.33;77.57
65766;SHT31;52915;53.718;19.946;2023-08-06T08:56:09;24.28;77.30
65766;SHT31;52915;53.718;19.946;2023-08-06T09:01:17;24.26;77.73
65766;SHT31;52915;53.718;19.946;2023-08-06T09:06:21;24.24;77.68
65766;SHT31;52915;53.718;19.946;2023-08-06T09:11:30;24.28;77.50
65766;SHT31;52915;53.718;19.946;2023-08-06T09:16:44;24.44;77.39
65766;SHT31;52915;53.718;19.946;2023-08-06T09:21:50;24.58;77.15
65766;SHT31;52915;53.718;19.946;2023-08-06T09:26:56;24.88;76.61
65766;SHT31;52915;53.718;19.946;2023-08-06T09:32:02;25.12;75.84
65766;SHT31;52915;53.718;19.946;2023-08-06T09:37:08;25.66;75.10
65766;SHT31;52915;53.718;19.946;2023-08-06T09:42:16;26.16;74.02
65766;SHT31;52915;53.718;19.946;2023-08-06T09:47:21;26.23;73.44
65766;SHT31;52915;53.718;19.946;2023-08-06T09:52:28;26.37;73.21
65766;SHT31;52915;53.718;19.946;2023-08-06T09:57:33;26.78;72.61
65766;SHT31;52915;53.718;19.946;2023-08-06T10:02:38;27.13;71.93
65766;SHT31;52915;53.718;19.946;2023-08-06T10:07:46;27.54;70.29
65766;SHT31;52915;53.718;19.946;2023-08-06T10:13:19;27.72;69.85
65766;SHT31;52915;53.718;19.946;2023-08-06T10:18:31;27.93;69.03
65766;SHT31;52915;53.718;19.946;2023-08-06T10:23:54;28.21;68.85
65766;SHT31;52915;53.718;19.946;2023-08-06T10:29:39;27.98;68.17
65766;SHT31;52915;53.718;19.946;2023-08-06T10:34:57;27.87;68.29
65766;SHT31;52915;53.718;19.946;2023-08-06T10:40:06;27.80;66.69
65766;SHT31;52915;53.718;19.946;2023-08-06T10:45:39;28.29;64.77
65766;SHT31;52915;53.718;19.946;2023-08-06T10:51:02;28.27;63.56
65766;SHT31;52915;53.718;19.946;2023-08-06T10:56:22;28.21;63.94
65766;SHT31;52915;53.718;19.946;2023-08-06T11:01:36;28.45;62.88
65766;SHT31;52915;53.718;19.946;2023-08-06T11:06:55;28.47;61.85
65766;SHT31;52915;53.718;19.946;2023-08-06T11:12:11;28.40;62.37
65766;SHT31;52915;53.718;19.946;2023-08-06T11:17:34;28.62;62.15
65766;SHT31;52915;53.718;19.946;2023-08-06T11:23:10;28.86;61.56
65766;SHT31;52915;53.718;19.946;2023-08-06T11:28:33;29.14;62.34
65766;SHT31;52915;53.718;19.946;2023-08-06T11:33:44;29.54;60.61
65766;SHT31;52915;53.718;19.946;2023-08-06T11:39:01;29.76;58.85
65766;SHT31;52915;53.718;19.946;2023-08-06T11:44:20;29.93;56.99
65766;SHT31;52915;53.718;19.946;2023-08-06T11:55:01;29.98;58.04
65766;SHT31;52915;53.718;19.946;2023-08-06T12:00:12;30.34;57.62
65766;SHT31;52915;53.718;19.946;2023-08-06T12:05:21;30.37;57.21
65766;SHT31;52915;53.718;19.946;2023-08-06T12:10:31;30.72;57.53
65766;SHT31;52915;53.718;19.946;2023-08-06T12:15:37;30.67;56.03
65766;SHT31;52915;53.718;19.946;2023-08-06T12:20:41;30.57;56.58
65766;SHT31;52915;53.718;19.946;2023-08-06T12:25:46;30.64;55.90
65766;SHT31;52915;53.718;19.946;2023-08-06T12:30:50;31.13;55.38
65766;SHT31;52915;53.718;19.946;2023-08-06T12:35:58;31.33;54.02
65766;SHT31;52915;53.718;19.946;2023-08-06T12:41:03;31.07;54.58
65766;SHT31;52915;53.718;19.946;2023-08-06T12:46:08;30.77;54.08
65766;SHT31;52915;53.718;19.946;2023-08-06T12:51:13;31.02;53.10
65766;SHT31;52915;53.718;19.946;2023-08-06T12:56:19;31.48;53.26
65766;SHT31;52915;53.718;19.946;2023-08-06T13:01:23;31.55;52.39
65766;SHT31;52915;53.718;19.946;2023-08-06T13:06:27;30.86;52.54
65766;SHT31;52915;53.718;19.946;2023-08-06T13:11:31;30.73;52.74
65766;SHT31;52915;53.718;19.946;2023-08-06T13:16:36;31.27;51.63
65766;SHT31;52915;53.718;19.946;2023-08-06T13:27:08;31.98;49.74
65766;SHT31;52915;53.718;19.946;2023-08-06T13:32:13;32.31;48.69
65766;SHT31;52915;53.718;19.946;2023-08-06T13:37:17;32.21;45.14
65766;SHT31;52915;53.718;19.946;2023-08-06T13:42:21;32.15;44.67
65766;SHT31;52915;53.718;19.946;2023-08-06T13:47:26;32.22;45.87
65766;SHT31;52915;53.718;19.946;2023-08-06T13:52:31;32.58;46.64
65766;SHT31;52915;53.718;19.946;2023-08-06T13:57:35;32.87;45.42
65766;SHT31;52915;53.718;19.946;2023-08-06T14:02:39;32.94;45.34
65766;SHT31;52915;53.718;19.946;2023-08-06T14:07:43;33.00;43.12
65766;SHT31;52915;53.718;19.946;2023-08-06T14:12:48;32.89;42.19
65766;SHT31;52915;53.718;19.946;2023-08-06T14:18:15;32.87;43.51
65766;SHT31;52915;53.718;19.946;2023-08-06T14:23:20;32.54;43.13
65766;SHT31;52915;53.718;19.946;2023-08-06T14:28:24;32.02;43.51
65766;SHT31;52915;53.718;19.946;2023-08-06T14:33:29;31.71;45.04
65766;SHT31;52915;53.718;19.946;2023-08-06T14:38:33;31.57;46.33
65766;SHT31;52915;53.718;19.946;2023-08-06T14:43:56;31.26;46.62
65766;SHT31;52915;53.718;19.946;2023-08-06T14:49:00;31.13;47.60
65766;SHT31;52915;53.718;19.946;2023-08-06T14:54:04;31.20;48.11
65766;SHT31;52915;53.718;19.946;2023-08-06T14:59:09;31.30;48.60
65766;SHT31;52915;53.718;19.946;2023-08-06T15:04:13;31.79;48.19
65766;SHT31;52915;53.718;19.946;2023-08-06T15:09:17;32.18;46.71
65766;SHT31;52915;53.718;19.946;2023-08-06T15:14:22;32.00;45.76
65766;SHT31;52915;53.718;19.946;2023-08-06T15:19:26;31.45;45.96
65766;SHT31;52915;53.718;19.946;2023-08-06T15:24:30;30.99;47.01
65766;SHT31;52915;53.718;19.946;2023-08-06T15:29:35;31.04;47.37
65766;SHT31;52915;53.718;19.946;2023-08-06T15:34:40;31.36;46.76
65766;SHT31;52915;53.718;19.946;2023-08-06T15:39:44;31.26;48.17
65766;SHT31;52915;53.718;19.946;2023-08-06T15:44:49;30.74;50.81
65766;SHT31;52915;53.718;19.946;2023-08-06T15:49:54;30.48;52.24
65766;SHT31;52915;53.718;19.946;2023-08-06T15:55:01;30.06;53.54
65766;SHT31;52915;53.718;19.946;2023-08-06T16:00:09;29.56;55.07
65766;SHT31;52915;53.718;19.946;2023-08-06T16:05:14;28.66;57.29
65766;SHT31;52915;53.718;19.946;2023-08-06T16:10:20;28.11;58.92
65766;SHT31;52915;53.718;19.946;2023-08-06T16:15:24;27.65;60.56
65766;SHT31;52915;53.718;19.946;2023-08-06T16:20:29;27.30;62.17
65766;SHT31;52915;53.718;19.946;2023-08-06T16:25:37;26.93;63.92
65766;SHT31;52915;53.718;19.946;2023-08-06T16:30:48;26.86;64.92
65766;SHT31;52915;53.718;19.946;2023-08-06T16:35:52;27.30;64.21
65766;SHT31;52915;53.718;19.946;2023-08-06T16:40:57;27.49;63.69
65766;SHT31;52915;53.718;19.946;2023-08-06T16:46:01;27.54;63.51
65766;SHT31;52915;53.718;19.946;2023-08-06T16:51:06;27.39;63.87
65766;SHT31;52915;53.718;19.946;2023-08-06T16:56:11;27.14;64.52
65766;SHT31;52915;53.718;19.946;2023-08-06T17:01:15;26.93;64.99
65766;SHT31;52915;53.718;19.946;2023-08-06T17:11:38;26.53;64.36
65766;SHT31;52915;53.718;19.946;2023-08-06T17:16:42;26.47;63.78
65766;SHT31;52915;53.718;19.946;2023-08-06T17:21:47;26.36;64.11
65766;SHT31;52915;53.718;19.946;2023-08-06T17:26:51;26.17;63.99
65766;SHT31;52915;53.718;19.946;2023-08-06T17:32:02;25.92;64.19
65766;SHT31;52915;53.718;19.946;2023-08-06T17:37:07;25.74;64.76
65766;SHT31;52915;53.718;19.946;2023-08-06T17:42:11;25.61;65.11
65766;SHT31;52915;53.718;19.946;2023-08-06T17:47:16;25.43;65.72
65766;SHT31;52915;53.718;19.946;2023-08-06T17:52:38;25.28;66.20
65766;SHT31;52915;53.718;19.946;2023-08-06T17:57:43;25.12;66.78
65766;SHT31;52915;53.718;19.946;2023-08-06T18:02:47;24.92;67.53
65766;SHT31;52915;53.718;19.946;2023-08-06T18:07:51;24.78;68.46
65766;SHT31;52915;53.718;19.946;2023-08-06T18:12:55;24.56;69.57
65766;SHT31;52915;53.718;19.946;2023-08-06T18:18:00;24.42;70.25
65766;SHT31;52915;53.718;19.946;2023-08-06T18:23:05;24.23;70.68
65766;SHT31;52915;53.718;19.946;2023-08-06T18:28:09;24.10;70.00
65766;SHT31;52915;53.718;19.946;2023-08-06T18:33:14;23.99;69.40
65766;SHT31;52915;53.718;19.946;2023-08-06T18:38:19;23.79;70.11
65766;SHT31;52915;53.718;19.946;2023-08-06T18:43:23;23.65;70.71
65766;SHT31;52915;53.718;19.946;2023-08-06T18:48:27;23.54;71.13
65766;SHT31;52915;53.718;19.946;2023-08-06T18:53:32;23.39;71.75
65766;SHT31;52915;53.718;19.946;2023-08-06T18:58:37;23.20;72.64
65766;SHT31;52915;53.718;19.946;2023-08-06T19:03:42;22.97;73.44
65766;SHT31;52915;53.718;19.946;2023-08-06T19:08:46;22.72;74.04
65766;SHT31;52915;53.718;19.946;2023-08-06T19:13:51;22.48;74.78
65766;SHT31;52915;53.718;19.946;2023-08-06T19:24:26;22.15;75.24
65766;SHT31;52915;53.718;19.946;2023-08-06T19:29:31;21.90;75.64
65766;SHT31;52915;53.718;19.946;2023-08-06T19:34:36;21.69;75.93
65766;SHT31;52915;53.718;19.946;2023-08-06T19:39:40;21.56;76.20
65766;SHT31;52915;53.718;19.946;2023-08-06T19:44:44;21.36;76.55
65766;SHT31;52915;53.718;19.946;2023-08-06T19:49:49;21.23;76.70
65766;SHT31;52915;53.718;19.946;2023-08-06T19:54:53;21.12;76.91
65766;SHT31;52915;53.718;19.946;2023-08-06T19:59:58;20.98;77.01
65766;SHT31;52915;53.718;19.946;2023-08-06T20:05:03;20.78;77.47
65766;SHT31;52915;53.718;19.946;2023-08-06T20:10:08;20.71;77.46
65766;SHT31;52915;53.718;19.946;2023-08-06T20:15:13;20.68;77.27
65766;SHT31;52915;53.718;19.946;2023-08-06T20:20:17;20.47;77.77
65766;SHT31;52915;53.718;19.946;2023-08-06T20:25:22;20.32;77.78
65766;SHT31;52915;53.718;19.946;2023-08-06T20:30:29;20.16;77.08
65766;SHT31;52915;53.718;19.946;2023-08-06T20:35:36;19.92;76.53
65766;SHT31;52915;53.718;19.946;2023-08-06T20:40:42;19.75;76.88
65766;SHT31;52915;53.718;19.946;2023-08-06T20:45:56;19.75;76.83
65766;SHT31;52915;53.718;19.946;2023-08-06T20:51:07;19.73;76.96
65766;SHT31;52915;53.718;19.946;2023-08-06T20:56:12;19.63;77.31
65766;SHT31;52915;53.718;19.946;2023-08-06T21:01:19;19.59;77.51
65766;SHT31;52915;53.718;19.946;2023-08-06T21:06:24;19.61;77.48
65766;SHT31;52915;53.718;19.946;2023-08-06T21:11:28;19.55;77.81
65766;SHT31;52915;53.718;19.946;2023-08-06T21:16:33;19.43;78.07
65766;SHT31;52915;53.718;19.946;2023-08-06T21:21:37;19.41;78.00
65766;SHT31;52915;53.718;19.946;2023-08-06T21:26:41;19.31;77.95
65766;SHT31;52915;53.718;19.946;2023-08-06T21:31:45;19.21;77.79
65766;SHT31;52915;53.718;19.946;2023-08-06T21:36:50;19.16;77.85
65766;SHT31;52915;53.718;19.946;2023-08-06T21:41:54;19.03;78.15
65766;SHT31;52915;53.718;19.946;2023-08-06T21:46:59;18.92;78.32
65766;SHT31;52915;53.718;19.946;2023-08-06T21:52:03;18.87;78.50
65766;SHT31;52915;53.718;19.946;2023-08-06T21:57:08;18.85;78.54
65766;SHT31;52915;53.718;19.946;2023-08-06T22:02:13;18.81;78.46
65766;SHT31;52915;53.718;19.946;2023-08-06T22:07:17;18.80;78.33
65766;SHT31;52915;53.718;19.946;2023-08-06T22:12:21;18.77;78.44
65766;SHT31;52915;53.718;19.946;2023-08-06T22:17:25;18.70;78.92
65766;SHT31;52915;53.718;19.946;2023-08-06T22:22:30;18.59;79.42
65766;SHT31;52915;53.718;19.946;2023-08-06T22:27:35;18.44;79.96
65766;SHT31;52915;53.718;19.946;2023-08-06T22:32:40;18.28;80.35
65766;SHT31;52915;53.718;19.946;2023-08-06T22:37:45;18.18;80.65
65766;SHT31;52915;53.718;19.946;2023-08-06T22:42:50;18.18;80.50
65766;SHT31;52915;53.718;19.946;2023-08-06T22:47:55;18.10;80.79
65766;SHT31;52915;53.718;19.946;2023-08-06T22:52:59;18.05;80.96
65766;SHT31;52915;53.718;19.946;2023-08-06T22:58:03;17.96;81.39
65766;SHT31;52915;53.718;19.946;2023-08-06T23:03:07;17.90;81.68
65766;SHT31;52915;53.718;19.946;2023-08-06T23:08:15;17.83;82.11
65766;SHT31;52915;53.718;19.946;2023-08-06T23:13:19;17.69;83.25
65766;SHT31;52915;53.718;19.946;2023-08-06T23:18:24;17.50;83.95
65766;SHT31;52915;53.718;19.946;2023-08-06T23:23:28;17.38;83.66
65766;SHT31;52915;53.718;19.946;2023-08-06T23:28:32;17.26;83.67
65766;SHT31;52915;53.718;19.946;2023-08-06T23:33:37;17.13;83.99
65766;SHT31;52915;53.718;19.946;2023-08-06T23:38:42;17.03;84.44
65766;SHT31;52915;53.718;19.946;2023-08-06T23:43:46;16.92;84.96
65766;SHT31;52915;53.718;19.946;2023-08-06T23:48:50;16.73;85.13
65766;SHT31;52915;53.718;19.946;2023-08-06T23:53:55;16.60;84.93
65766;SHT31;52915;53.718;19.946;2023-08-06T23:58:59;16.49;84.88
